sensor_id;sensor_type;location;lat;lon;timestamp;temperature;humidity
28010;DHT22;15334;49.494;8.410;2022-10-31T00:00:48;12.50;99.90
28010;DHT22;15334;49.494;8.410;2022-10-31T00:03:16;12.50;99.90
28010;DHT22;15334;49.494;8.410;2022-10-31T00:05:46;12.50;99.90
28010;DHT22;15334;49.494;8.410;2022-10-31T00:08:15;12.50;99.90
28010;DHT22;15334;49.494;8.410;2022-10-31T00:10:44;12.50;99.90
28010;DHT22;15334;49.494;8.410;2022-10-31T00:13:13;12.50;99.90
28010;DHT22;15334;49.494;8.410;2022-10-31T00:15:43;12.40;99.90
28010;DHT22;15334;49.494;8.410;2022-10-31T00:18:11;12.50;99.90
28010;DHT22;15334;49.494;8.410;2022-10-31T00:20:39;12.40;99.90
28010;DHT22;15334;49.494;8.410;2022-10-31T00:23:07;12.40;99.90
28010;DHT22;15334;49.494;8.410;2022-10-31T00:25:36;12.40;99.90
28010;DHT22;15334;49.494;8.410;2022-10-31T00:28:05;12.40;99.90
28010;DHT22;15334;49.494;8.410;2022-10-31T00:30:34;12.40;99.90
28010;DHT22;15334;49.494;8.410;2022-10-31T00:33:04;12.40;99.90
28010;DHT22;15334;49.494;8.410;2022-10-31T00:35:32;12.20;99.90
28010;DHT22;15334;49.494;8.410;2022-10-31T00:38:00;12.10;99.90
28010;DHT22;15334;49.494;8.410;2022-10-31T00:40:28;12.10;99.90
28010;DHT22;15334;49.494;8.410;2022-10-31T00:42:56;12.20;99.90
28010;DHT22;15334;49.494;8.410;2022-10-31T00:45:24;12.20;99.90
28010;DHT22;15334;49.494;8.410;2022-10-31T00:47:52;12.30;99.90
28010;DHT22;15334;49.494;8.410;2022-10-31T00:50:22;12.30;99.90
28010;DHT22;15334;49.494;8.410;2022-10-31T00:52:50;12.30;99.90
28010;DHT22;15334;49.494;8.410;2022-10-31T00:55:18;12.30;99.90
28010;DHT22;15334;49.494;8.410;2022-10-31T00:57:46;12.30;99.90
28010;DHT22;15334;49.494;8.410;2022-10-31T01:00:15;12.30;99.90
28010;DHT22;15334;49.494;8.410;2022-10-31T01:02:43;12.40;99.90
28010;DHT22;15334;49.494;8.410;2022-10-31T01:05:13;12.40;99.90
28010;DHT22;15334;49.494;8.410;2022-10-31T01:07:42;12.40;99.90
28010;DHT22;15334;49.494;8.410;2022-10-31T01:10:11;12.40;99.90
28010;DHT22;15334;49.494;8.410;2022-10-31T01:12:40;12.40;99.90
28010;DHT22;15334;49.494;8.410;2022-10-31T01:15:10;12.40;99.90
28010;DHT22;15334;49.494;8.410;2022-10-31T01:17:38;12.40;99.90
28010;DHT22;15334;49.494;8.410;2022-10-31T01:20:14;12.30;99.90
28010;DHT22;15334;49.494;8.410;2022-10-31T01:22:43;12.30;99.90
28010;DHT22;15334;49.494;8.410;2022-10-31T01:25:12;12.30;99.90
28010;DHT22;15334;49.494;8.410;2022-10-31T01:27:40;12.30;99.90
28010;DHT22;15334;49.494;8.410;2022-10-31T01:30:08;12.30;99.90
28010;DHT22;15334;49.494;8.410;2022-10-31T01:32:37;12.30;99.90
28010;DHT22;15334;49.494;8.410;2022-10-31T01:35:05;12.30;99.90
28010;DHT22;15334;49.494;8.410;2022-10-31T01:37:33;12.30;99.90
28010;DHT22;15334;49.494;8.410;2022-10-31T01:40:04;12.20;99.90
28010;DHT22;15334;49.494;8.410;2022-10-31T01:42:33;12.20;99.90
28010;DHT22;15334;49.494;8.410;2022-10-31T01:45:01;12.20;99.90
28010;DHT22;15334;49.494;8.410;2022-10-31T01:47:35;12.20;99.90
28010;DHT22;15334;49.494;8.410;2022-10-31T01:50:09;12.30;99.90
28010;DHT22;15334;49.494;8.410;2022-10-31T01:52:41;12.30;99.90
28010;DHT22;15334;49.494;8.410;2022-10-31T01:55:14;12.30;99.90
28010;DHT22;15334;49.494;8.410;2022-10-31T01:57:45;12.30;99.90
28010;DHT22;15334;49.494;8.410;2022-10-31T02:00:15;12.30;99.90
28010;DHT22;15334;49.494;8.410;2022-10-31T02:02:44;12.30;99.90
28010;DHT22;15334;49.494;8.410;2022-10-31T02:05:16;12.40;99.90
28010;DHT22;15334;49.494;8.410;2022-10-31T02:07:50;12.40;99.90
28010;DHT22;15334;49.494;8.410;2022-10-31T02:10:22;12.40;99.90
28010;DHT22;15334;49.494;8.410;2022-10-31T02:12:51;12.40;99.90
28010;DHT22;15334;49.494;8.410;2022-10-31T02:15:20;12.40;99.90
28010;DHT22;15334;49.494;8.410;2022-10-31T02:17:48;12.40;99.90
28010;DHT22;15334;49.494;8.410;2022-10-31T02:20:18;12.40;99.90
28010;DHT22;15334;49.494;8.410;2022-10-31T02:23:20;12.40;99.90
28010;DHT22;15334;49.494;8.410;2022-10-31T02:26:09;12.30;99.90
28010;DHT22;15334;49.494;8.410;2022-10-31T02:28:58;12.30;99.90
28010;DHT22;15334;49.494;8.410;2022-10-31T02:31:35;12.30;99.90
28010;DHT22;15334;49.494;8.410;2022-10-31T02:34:13;12.30;99.90
28010;DHT22;15334;49.494;8.410;2022-10-31T02:36:50;12.30;99.90
28010;DHT22;15334;49.494;8.410;2022-10-31T02:39:23;12.30;99.90
28010;DHT22;15334;49.494;8.410;2022-10-31T02:41:58;12.20;99.90
28010;DHT22;15334;49.494;8.410;2022-10-31T02:44:33;12.20;99.90
28010;DHT22;15334;49.494;8.410;2022-10-31T02:47:06;12.10;99.90
28010;DHT22;15334;49.494;8.410;2022-10-31T02:49:40;12.10;99.90
28010;DHT22;15334;49.494;8.410;2022-10-31T02:52:17;12.10;99.90
28010;DHT22;15334;49.494;8.410;2022-10-31T02:54:46;12.10;99.90
28010;DHT22;15334;49.494;8.410;2022-10-31T02:57:17;12.10;99.90
28010;DHT22;15334;49.494;8.410;2022-10-31T02:59:48;12.00;99.90
28010;DHT22;15334;49.494;8.410;2022-10-31T03:02:30;11.90;99.90
28010;DHT22;15334;49.494;8.410;2022-10-31T03:05:18;12.00;99.90
28010;DHT22;15334;49.494;8.410;2022-10-31T03:07:57;12.00;99.90
28010;DHT22;15334;49.494;8.410;2022-10-31T03:10:35;12.00;99.90
28010;DHT22;15334;49.494;8.410;2022-10-31T03:13:09;12.00;99.90
28010;DHT22;15334;49.494;8.410;2022-10-31T03:15:42;12.00;99.90
28010;DHT22;15334;49.494;8.410;2022-10-31T03:18:12;12.00;99.90
28010;DHT22;15334;49.494;8.410;2022-10-31T03:20:47;12.00;99.90
28010;DHT22;15334;49.494;8.410;2022-10-31T03:23:19;12.00;99.90
28010;DHT22;15334;49.494;8.410;2022-10-31T03:25:49;12.00;99.90
28010;DHT22;15334;49.494;8.410;2022-10-31T03:28:22;12.10;99.90
28010;DHT22;15334;49.494;8.410;2022-10-31T03:30:52;12.00;99.90
28010;DHT22;15334;49.494;8.410;2022-10-31T03:33:24;12.10;99.90
28010;DHT22;15334;49.494;8.410;2022-10-31T03:35:55;12.10;99.90
28010;DHT22;15334;49.494;8.410;2022-10-31T03:38:25;12.00;99.90
28010;DHT22;15334;49.494;8.410;2022-10-31T03:40:54;12.10;99.90
28010;DHT22;15334;49.494;8.410;2022-10-31T03:43:27;12.00;99.90
28010;DHT22;15334;49.494;8.410;2022-10-31T03:45:56;12.00;99.90
28010;DHT22;15334;49.494;8.410;2022-10-31T03:48:26;12.00;99.90
28010;DHT22;15334;49.494;8.410;2022-10-31T03:51:00;12.00;99.90
28010;DHT22;15334;49.494;8.410;2022-10-31T03:53:34;12.00;99.90
28010;DHT22;15334;49.494;8.410;2022-10-31T03:56:10;11.90;99.90
28010;DHT22;15334;49.494;8.410;2022-10-31T03:58:44;11.90;99.90
28010;DHT22;15334;49.494;8.410;2022-10-31T04:01:17;11.90;99.90
28010;DHT22;15334;49.494;8.410;2022-10-31T04:03:48;11.90;99.90
28010;DHT22;15334;49.494;8.410;2022-10-31T04:06:18;11.90;99.90
28010;DHT22;15334;49.494;8.410;2022-10-31T04:08:49;11.90;99.90
28010;DHT22;15334;49.494;8.410;2022-10-31T04:11:21;11.90;99.90
28010;DHT22;15334;49.494;8.410;2022-10-31T04:13:50;11.90;99.90
28010;DHT22;15334;49.494;8.410;2022-10-31T04:16:20;11.90;99.90
28010;DHT22;15334;49.494;8.410;2022-10-31T04:18:50;11.90;99.90
28010;DHT22;15334;49.494;8.410;2022-10-31T04:21:18;11.80;99.90
28010;DHT22;15334;49.494;8.410;2022-10-31T04:23:49;11.80;99.90
28010;DHT22;15334;49.494;8.410;2022-10-31T04:26:18;11.80;99.90
28010;DHT22;15334;49.494;8.410;2022-10-31T04:28:46;11.80;99.90
28010;DHT22;15334;49.494;8.410;2022-10-31T04:31:14;11.80;99.90
28010;DHT22;15334;49.494;8.410;2022-10-31T04:33:42;11.80;99.90
28010;DHT22;15334;49.494;8.410;2022-10-31T04:36:12;11.70;99.90
28010;DHT22;15334;49.494;8.410;2022-10-31T04:38:39;11.70;99.90
28010;DHT22;15334;49.494;8.410;2022-10-31T04:41:07;11.70;99.90
28010;DHT22;15334;49.494;8.410;2022-10-31T04:43:35;11.70;99.90
28010;DHT22;15334;49.494;8.410;2022-10-31T04:46:03;11.70;99.90
28010;DHT22;15334;49.494;8.410;2022-10-31T04:48:35;11.60;99.90
28010;DHT22;15334;49.494;8.410;2022-10-31T04:51:03;11.60;99.90
28010;DHT22;15334;49.494;8.410;2022-10-31T04:53:34;11.50;99.90
28010;DHT22;15334;49.494;8.410;2022-10-31T04:56:02;11.50;99.90
28010;DHT22;15334;49.494;8.410;2022-10-31T04:58:30;11.50;99.90
28010;DHT22;15334;49.494;8.410;2022-10-31T05:00:58;11.50;99.90
28010;DHT22;15334;49.494;8.410;2022-10-31T05:03:26;11.40;99.90
28010;DHT22;15334;49.494;8.410;2022-10-31T05:05:54;11.30;99.90
28010;DHT22;15334;49.494;8.410;2022-10-31T05:08:22;11.20;99.90
28010;DHT22;15334;49.494;8.410;2022-10-31T05:10:51;11.20;99.90
28010;DHT22;15334;49.494;8.410;2022-10-31T05:13:19;11.20;99.90
28010;DHT22;15334;49.494;8.410;2022-10-31T05:15:47;11.10;99.90
28010;DHT22;15334;49.494;8.410;2022-10-31T05:18:15;11.10;99.90
28010;DHT22;15334;49.494;8.410;2022-10-31T05:20:43;11.00;99.90
28010;DHT22;15334;49.494;8.410;2022-10-31T05:23:11;11.00;99.90
28010;DHT22;15334;49.494;8.410;2022-10-31T05:25:48;11.00;99.90
28010;DHT22;15334;49.494;8.410;2022-10-31T05:28:17;10.90;99.90
28010;DHT22;15334;49.494;8.410;2022-10-31T05:30:45;10.90;99.90
28010;DHT22;15334;49.494;8.410;2022-10-31T05:33:13;10.90;99.90
28010;DHT22;15334;49.494;8.410;2022-10-31T05:35:41;10.90;99.90
28010;DHT22;15334;49.494;8.410;2022-10-31T05:38:09;10.90;99.90
28010;DHT22;15334;49.494;8.410;2022-10-31T05:40:37;11.00;99.90
28010;DHT22;15334;49.494;8.410;2022-10-31T05:43:05;10.90;99.90
28010;DHT22;15334;49.494;8.410;2022-10-31T05:45:34;10.90;99.90
28010;DHT22;15334;49.494;8.410;2022-10-31T05:48:03;10.80;99.90
28010;DHT22;15334;49.494;8.410;2022-10-31T05:50:31;10.80;99.90
28010;DHT22;15334;49.494;8.410;2022-10-31T05:53:02;10.80;99.90
28010;DHT22;15334;49.494;8.410;2022-10-31T05:55:32;10.90;99.90
28010;DHT22;15334;49.494;8.410;2022-10-31T05:58:02;10.80;99.90
28010;DHT22;15334;49.494;8.410;2022-10-31T06:00:30;10.80;99.90
28010;DHT22;15334;49.494;8.410;2022-10-31T06:03:00;10.80;99.90
28010;DHT22;15334;49.494;8.410;2022-10-31T06:05:29;10.80;99.90
28010;DHT22;15334;49.494;8.410;2022-10-31T06:07:57;10.80;99.90
28010;DHT22;15334;49.494;8.410;2022-10-31T06:10:27;10.80;99.90
28010;DHT22;15334;49.494;8.410;2022-10-31T06:12:55;10.80;99.90
28010;DHT22;15334;49.494;8.410;2022-10-31T06:15:23;10.80;99.90
28010;DHT22;15334;49.494;8.410;2022-10-31T06:17:59;10.80;99.90
28010;DHT22;15334;49.494;8.410;2022-10-31T06:20:29;10.80;99.90
28010;DHT22;15334;49.494;8.410;2022-10-31T06:22:57;10.80;99.90
28010;DHT22;15334;49.494;8.410;2022-10-31T06:25:26;10.80;99.90
28010;DHT22;15334;49.494;8.410;2022-10-31T06:27:54;10.70;99.90
28010;DHT22;15334;49.494;8.410;2022-10-31T06:30:22;10.70;99.90
28010;DHT22;15334;49.494;8.410;2022-10-31T06:32:50;10.70;99.90
28010;DHT22;15334;49.494;8.410;2022-10-31T06:35:20;10.80;99.90
28010;DHT22;15334;49.494;8.410;2022-10-31T06:37:51;10.80;99.90
28010;DHT22;15334;49.494;8.410;2022-10-31T06:40:20;10.90;99.90
28010;DHT22;15334;49.494;8.410;2022-10-31T06:42:56;10.90;99.90
28010;DHT22;15334;49.494;8.410;2022-10-31T06:45:24;11.00;99.90
28010;DHT22;15334;49.494;8.410;2022-10-31T06:47:52;11.00;99.90
28010;DHT22;15334;49.494;8.410;2022-10-31T06:50:41;11.10;99.90
28010;DHT22;15334;49.494;8.410;2022-10-31T06:53:09;11.20;99.90
28010;DHT22;15334;49.494;8.410;2022-10-31T06:55:37;11.20;99.90
28010;DHT22;15334;49.494;8.410;2022-10-31T06:58:05;11.30;99.90
28010;DHT22;15334;49.494;8.410;2022-10-31T07:00:34;11.30;99.90
28010;DHT22;15334;49.494;8.410;2022-10-31T07:03:05;11.40;99.90
28010;DHT22;15334;49.494;8.410;2022-10-31T07:05:33;11.40;99.90
28010;DHT22;15334;49.494;8.410;2022-10-31T07:08:04;11.50;99.90
28010;DHT22;15334;49.494;8.410;2022-10-31T07:10:34;11.60;99.90
28010;DHT22;15334;49.494;8.410;2022-10-31T07:13:08;11.70;99.90
28010;DHT22;15334;49.494;8.410;2022-10-31T07:15:39;11.70;99.90
28010;DHT22;15334;49.494;8.410;2022-10-31T07:18:09;11.80;99.90
28010;DHT22;15334;49.494;8.410;2022-10-31T07:20:37;11.90;99.90
28010;DHT22;15334;49.494;8.410;2022-10-31T07:23:08;12.00;99.90
28010;DHT22;15334;49.494;8.410;2022-10-31T07:25:36;12.10;99.90
28010;DHT22;15334;49.494;8.410;2022-10-31T07:28:04;12.10;99.90
28010;DHT22;15334;49.494;8.410;2022-10-31T07:30:32;12.30;99.90
28010;DHT22;15334;49.494;8.410;2022-10-31T07:33:00;12.30;99.90
28010;DHT22;15334;49.494;8.410;2022-10-31T07:35:29;12.40;99.90
28010;DHT22;15334;49.494;8.410;2022-10-31T07:38:09;12.50;99.90
28010;DHT22;15334;49.494;8.410;2022-10-31T07:40:37;12.60;99.90
28010;DHT22;15334;49.494;8.410;2022-10-31T07:43:05;12.70;99.90
28010;DHT22;15334;49.494;8.410;2022-10-31T07:45:39;12.90;99.90
28010;DHT22;15334;49.494;8.410;2022-10-31T07:48:07;13.00;99.90
28010;DHT22;15334;49.494;8.410;2022-10-31T07:50:35;13.10;99.90
28010;DHT22;15334;49.494;8.410;2022-10-31T07:53:04;13.20;99.90
28010;DHT22;15334;49.494;8.410;2022-10-31T07:55:34;13.40;99.90
28010;DHT22;15334;49.494;8.410;2022-10-31T07:58:04;13.50;99.90
28010;DHT22;15334;49.494;8.410;2022-10-31T08:00:34;13.60;99.90
28010;DHT22;15334;49.494;8.410;2022-10-31T08:03:03;13.80;99.90
28010;DHT22;15334;49.494;8.410;2022-10-31T08:05:32;13.90;99.90
28010;DHT22;15334;49.494;8.410;2022-10-31T08:08:00;14.10;99.90
28010;DHT22;15334;49.494;8.410;2022-10-31T08:10:29;14.30;99.90
28010;DHT22;15334;49.494;8.410;2022-10-31T08:13:00;14.50;99.90
28010;DHT22;15334;49.494;8.410;2022-10-31T08:15:29;14.70;99.90
28010;DHT22;15334;49.494;8.410;2022-10-31T08:17:58;14.90;99.90
28010;DHT22;15334;49.494;8.410;2022-10-31T08:20:26;14.90;99.90
28010;DHT22;15334;49.494;8.410;2022-10-31T08:22:56;15.10;99.90
28010;DHT22;15334;49.494;8.410;2022-10-31T08:25:25;15.20;99.90
28010;DHT22;15334;49.494;8.410;2022-10-31T08:27:59;15.30;99.90
28010;DHT22;15334;49.494;8.410;2022-10-31T08:30:30;15.40;99.90
28010;DHT22;15334;49.494;8.410;2022-10-31T08:33:02;15.40;99.90
28010;DHT22;15334;49.494;8.410;2022-10-31T08:35:31;15.50;99.90
28010;DHT22;15334;49.494;8.410;2022-10-31T08:37:59;15.60;99.90
28010;DHT22;15334;49.494;8.410;2022-10-31T08:40:30;15.40;99.90
28010;DHT22;15334;49.494;8.410;2022-10-31T08:43:01;15.40;99.90
28010;DHT22;15334;49.494;8.410;2022-10-31T08:45:31;15.50;99.90
28010;DHT22;15334;49.494;8.410;2022-10-31T08:48:00;15.60;99.90
28010;DHT22;15334;49.494;8.410;2022-10-31T08:50:30;15.60;99.90
28010;DHT22;15334;49.494;8.410;2022-10-31T08:53:02;15.70;99.90
28010;DHT22;15334;49.494;8.410;2022-10-31T08:55:33;15.80;99.90
28010;DHT22;15334;49.494;8.410;2022-10-31T08:58:04;15.70;99.90
28010;DHT22;15334;49.494;8.410;2022-10-31T09:00:33;15.70;99.90
28010;DHT22;15334;49.494;8.410;2022-10-31T09:03:04;15.70;99.90
28010;DHT22;15334;49.494;8.410;2022-10-31T09:05:32;15.80;99.90
28010;DHT22;15334;49.494;8.410;2022-10-31T09:08:03;15.80;99.90
28010;DHT22;15334;49.494;8.410;2022-10-31T09:10:32;15.80;99.90
28010;DHT22;15334;49.494;8.410;2022-10-31T09:13:04;15.80;99.90
28010;DHT22;15334;49.494;8.410;2022-10-31T09:15:34;16.00;99.90
28010;DHT22;15334;49.494;8.410;2022-10-31T09:18:02;16.20;99.90
28010;DHT22;15334;49.494;8.410;2022-10-31T09:20:32;16.30;99.90
28010;DHT22;15334;49.494;8.410;2022-10-31T09:23:03;16.40;99.90
28010;DHT22;15334;49.494;8.410;2022-10-31T09:25:33;16.50;99.90
28010;DHT22;15334;49.494;8.410;2022-10-31T09:28:05;16.50;99.90
28010;DHT22;15334;49.494;8.410;2022-10-31T09:30:34;16.50;99.90
28010;DHT22;15334;49.494;8.410;2022-10-31T09:33:04;16.60;99.90
28010;DHT22;15334;49.494;8.410;2022-10-31T09:35:33;16.60;99.90
28010;DHT22;15334;49.494;8.410;2022-10-31T09:38:04;16.70;99.90
28010;DHT22;15334;49.494;8.410;2022-10-31T09:40:35;16.50;99.90
28010;DHT22;15334;49.494;8.410;2022-10-31T09:43:12;16.60;99.90
28010;DHT22;15334;49.494;8.410;2022-10-31T09:45:52;16.80;99.90
28010;DHT22;15334;49.494;8.410;2022-10-31T09:48:31;16.90;99.90
28010;DHT22;15334;49.494;8.410;2022-10-31T09:51:05;16.90;99.90
28010;DHT22;15334;49.494;8.410;2022-10-31T09:53:39;17.00;99.90
28010;DHT22;15334;49.494;8.410;2022-10-31T09:56:11;17.10;99.90
28010;DHT22;15334;49.494;8.410;2022-10-31T09:58:43;17.30;99.90
28010;DHT22;15334;49.494;8.410;2022-10-31T10:01:25;17.50;99.90
28010;DHT22;15334;49.494;8.410;2022-10-31T10:03:57;17.60;99.90
28010;DHT22;15334;49.494;8.410;2022-10-31T10:06:29;17.80;99.90
28010;DHT22;15334;49.494;8.410;2022-10-31T10:08:57;17.80;99.90
28010;DHT22;15334;49.494;8.410;2022-10-31T10:11:40;18.00;99.90
28010;DHT22;15334;49.494;8.410;2022-10-31T10:14:25;18.10;99.90
28010;DHT22;15334;49.494;8.410;2022-10-31T10:17:04;18.20;99.90
28010;DHT22;15334;49.494;8.410;2022-10-31T10:22:54;18.30;99.90
28010;DHT22;15334;49.494;8.410;2022-10-31T10:25:31;18.40;99.90
28010;DHT22;15334;49.494;8.410;2022-10-31T10:28:10;18.50;99.90
28010;DHT22;15334;49.494;8.410;2022-10-31T10:30:46;18.70;99.90
28010;DHT22;15334;49.494;8.410;2022-10-31T10:33:19;18.90;99.90
28010;DHT22;15334;49.494;8.410;2022-10-31T10:35:51;19.00;99.90
28010;DHT22;15334;49.494;8.410;2022-10-31T10:38:23;19.10;99.90
28010;DHT22;15334;49.494;8.410;2022-10-31T10:40:54;19.30;99.90
28010;DHT22;15334;49.494;8.410;2022-10-31T10:43:26;20.00;99.90
28010;DHT22;15334;49.494;8.410;2022-10-31T10:46:13;20.90;99.90
28010;DHT22;15334;49.494;8.410;2022-10-31T10:49:12;21.80;99.90
28010;DHT22;15334;49.494;8.410;2022-10-31T10:51:45;22.70;99.90
28010;DHT22;15334;49.494;8.410;2022-10-31T10:54:57;23.10;99.90
28010;DHT22;15334;49.494;8.410;2022-10-31T10:57:36;23.50;99.90
28010;DHT22;15334;49.494;8.410;2022-10-31T11:00:18;23.90;99.90
28010;DHT22;15334;49.494;8.410;2022-10-31T11:02:48;23.80;99.90
28010;DHT22;15334;49.494;8.410;2022-10-31T11:05:23;24.00;99.90
28010;DHT22;15334;49.494;8.410;2022-10-31T11:07:52;24.20;99.90
28010;DHT22;15334;49.494;8.410;2022-10-31T11:10:20;23.70;99.90
28010;DHT22;15334;49.494;8.410;2022-10-31T11:13:01;23.20;99.90
28010;DHT22;15334;49.494;8.410;2022-10-31T11:15:32;23.40;99.90
28010;DHT22;15334;49.494;8.410;2022-10-31T11:18:03;23.90;99.90
28010;DHT22;15334;49.494;8.410;2022-10-31T11:20:33;24.40;99.90
28010;DHT22;15334;49.494;8.410;2022-10-31T11:23:14;24.70;99.90
28010;DHT22;15334;49.494;8.410;2022-10-31T11:25:51;24.60;99.90
28010;DHT22;15334;49.494;8.410;2022-10-31T11:28:20;24.20;99.90
28010;DHT22;15334;49.494;8.410;2022-10-31T11:30:51;23.60;99.90
28010;DHT22;15334;49.494;8.410;2022-10-31T11:33:26;23.40;99.90
28010;DHT22;15334;49.494;8.410;2022-10-31T11:35:55;23.00;99.90
28010;DHT22;15334;49.494;8.410;2022-10-31T11:38:30;23.10;99.90
28010;DHT22;15334;49.494;8.410;2022-10-31T11:41:07;23.30;99.90
28010;DHT22;15334;49.494;8.410;2022-10-31T11:43:37;23.00;99.90
28010;DHT22;15334;49.494;8.410;2022-10-31T11:46:10;22.30;99.90
28010;DHT22;15334;49.494;8.410;2022-10-31T11:48:46;21.90;99.90
28010;DHT22;15334;49.494;8.410;2022-10-31T11:51:20;21.70;99.90
28010;DHT22;15334;49.494;8.410;2022-10-31T11:53:51;22.00;99.90
28010;DHT22;15334;49.494;8.410;2022-10-31T11:56:26;22.10;99.90
28010;DHT22;15334;49.494;8.410;2022-10-31T11:59:14;22.00;99.90
28010;DHT22;15334;49.494;8.410;2022-10-31T12:01:47;22.10;99.90
28010;DHT22;15334;49.494;8.410;2022-10-31T12:04:17;21.80;99.90
28010;DHT22;15334;49.494;8.410;2022-10-31T12:06:46;21.40;99.90
28010;DHT22;15334;49.494;8.410;2022-10-31T12:09:21;21.10;99.90
28010;DHT22;15334;49.494;8.410;2022-10-31T12:12:10;21.00;99.90
28010;DHT22;15334;49.494;8.410;2022-10-31T12:14:49;20.80;99.90
28010;DHT22;15334;49.494;8.410;2022-10-31T12:17:24;20.60;99.90
28010;DHT22;15334;49.494;8.410;2022-10-31T12:20:02;20.40;99.90
28010;DHT22;15334;49.494;8.410;2022-10-31T12:22:42;20.10;99.90
28010;DHT22;15334;49.494;8.410;2022-10-31T12:25:28;20.10;99.90
28010;DHT22;15334;49.494;8.410;2022-10-31T12:28:10;20.10;99.90
28010;DHT22;15334;49.494;8.410;2022-10-31T12:30:52;20.10;99.90
28010;DHT22;15334;49.494;8.410;2022-10-31T12:33:37;20.10;99.90
28010;DHT22;15334;49.494;8.410;2022-10-31T12:36:25;20.10;99.90
28010;DHT22;15334;49.494;8.410;2022-10-31T12:39:06;20.20;99.90
28010;DHT22;15334;49.494;8.410;2022-10-31T12:41:46;20.20;99.90
28010;DHT22;15334;49.494;8.410;2022-10-31T12:44:34;20.30;99.90
28010;DHT22;15334;49.494;8.410;2022-10-31T12:47:24;20.30;99.90
28010;DHT22;15334;49.494;8.410;2022-10-31T12:50:02;19.70;99.90
28010;DHT22;15334;49.494;8.410;2022-10-31T12:52:46;19.20;99.90
28010;DHT22;15334;49.494;8.410;2022-10-31T12:55:42;19.10;99.90
28010;DHT22;15334;49.494;8.410;2022-10-31T12:58:19;19.20;99.90
28010;DHT22;15334;49.494;8.410;2022-10-31T13:01:06;19.20;99.90
28010;DHT22;15334;49.494;8.410;2022-10-31T13:03:43;19.10;99.90
28010;DHT22;15334;49.494;8.410;2022-10-31T13:06:15;19.10;99.90
28010;DHT22;15334;49.494;8.410;2022-10-31T13:08:51;19.00;99.90
28010;DHT22;15334;49.494;8.410;2022-10-31T13:11:23;19.10;99.90
28010;DHT22;15334;49.494;8.410;2022-10-31T13:13:59;19.20;99.90
28010;DHT22;15334;49.494;8.410;2022-10-31T13:16:33;19.20;99.90
28010;DHT22;15334;49.494;8.410;2022-10-31T13:19:07;19.40;99.90
28010;DHT22;15334;49.494;8.410;2022-10-31T13:21:42;19.40;99.90
28010;DHT22;15334;49.494;8.410;2022-10-31T13:24:18;19.10;99.90
28010;DHT22;15334;49.494;8.410;2022-10-31T13:26:50;19.00;99.90
28010;DHT22;15334;49.494;8.410;2022-10-31T13:29:23;18.80;99.90
28010;DHT22;15334;49.494;8.410;2022-10-31T13:31:58;18.90;99.90
28010;DHT22;15334;49.494;8.410;2022-10-31T13:34:31;18.90;99.90
28010;DHT22;15334;49.494;8.410;2022-10-31T13:37:06;18.90;99.90
28010;DHT22;15334;49.494;8.410;2022-10-31T13:39:48;19.00;99.90
28010;DHT22;15334;49.494;8.410;2022-10-31T13:42:21;18.90;99.90
28010;DHT22;15334;49.494;8.410;2022-10-31T13:44:51;18.70;99.90
28010;DHT22;15334;49.494;8.410;2022-10-31T13:47:28;18.90;99.90
28010;DHT22;15334;49.494;8.410;2022-10-31T13:50:19;18.70;99.90
28010;DHT22;15334;49.494;8.410;2022-10-31T13:52:47;19.00;99.90
28010;DHT22;15334;49.494;8.410;2022-10-31T13:55:38;19.20;99.90
28010;DHT22;15334;49.494;8.410;2022-10-31T13:58:22;19.40;99.90
28010;DHT22;15334;49.494;8.410;2022-10-31T14:01:10;19.40;99.90
28010;DHT22;15334;49.494;8.410;2022-10-31T14:03:42;19.40;99.90
28010;DHT22;15334;49.494;8.410;2022-10-31T14:06:40;19.20;99.90
28010;DHT22;15334;49.494;8.410;2022-10-31T14:09:20;18.80;99.90
28010;DHT22;15334;49.494;8.410;2022-10-31T14:11:51;19.00;99.90
28010;DHT22;15334;49.494;8.410;2022-10-31T14:14:20;19.20;99.90
28010;DHT22;15334;49.494;8.410;2022-10-31T14:16:55;19.50;99.90
28010;DHT22;15334;49.494;8.410;2022-10-31T14:19:24;19.50;99.90
28010;DHT22;15334;49.494;8.410;2022-10-31T14:21:53;19.30;99.90
28010;DHT22;15334;49.494;8.410;2022-10-31T14:24:34;19.00;99.90
28010;DHT22;15334;49.494;8.410;2022-10-31T14:29:47;18.90;99.90
28010;DHT22;15334;49.494;8.410;2022-10-31T14:32:20;18.90;99.90
28010;DHT22;15334;49.494;8.410;2022-10-31T14:34:54;18.80;99.90
28010;DHT22;15334;49.494;8.410;2022-10-31T14:40:39;18.80;99.90
28010;DHT22;15334;49.494;8.410;2022-10-31T14:43:41;18.80;99.90
28010;DHT22;15334;49.494;8.410;2022-10-31T14:46:17;18.70;99.90
28010;DHT22;15334;49.494;8.410;2022-10-31T14:49:04;18.60;99.90
28010;DHT22;15334;49.494;8.410;2022-10-31T14:51:38;18.40;99.90
28010;DHT22;15334;49.494;8.410;2022-10-31T14:54:12;18.30;99.90
28010;DHT22;15334;49.494;8.410;2022-10-31T14:56:48;18.20;99.90
28010;DHT22;15334;49.494;8.410;2022-10-31T14:59:21;18.30;99.90
28010;DHT22;15334;49.494;8.410;2022-10-31T15:01:55;18.20;99.90
28010;DHT22;15334;49.494;8.410;2022-10-31T15:04:27;18.20;99.90
28010;DHT22;15334;49.494;8.410;2022-10-31T15:07:00;18.20;99.90
28010;DHT22;15334;49.494;8.410;2022-10-31T15:09:31;18.10;99.90
28010;DHT22;15334;49.494;8.410;2022-10-31T15:11:59;18.10;99.90
28010;DHT22;15334;49.494;8.410;2022-10-31T15:14:30;18.10;99.90
28010;DHT22;15334;49.494;8.410;2022-10-31T15:17:01;18.10;99.90
28010;DHT22;15334;49.494;8.410;2022-10-31T15:19:30;18.00;99.90
28010;DHT22;15334;49.494;8.410;2022-10-31T15:22:00;18.00;99.90
28010;DHT22;15334;49.494;8.410;2022-10-31T15:24:32;18.00;99.90
28010;DHT22;15334;49.494;8.410;2022-10-31T15:27:01;17.90;99.90
28010;DHT22;15334;49.494;8.410;2022-10-31T15:29:32;17.80;99.90
28010;DHT22;15334;49.494;8.410;2022-10-31T15:32:09;17.80;99.90
28010;DHT22;15334;49.494;8.410;2022-10-31T15:34:44;17.70;99.90
28010;DHT22;15334;49.494;8.410;2022-10-31T15:37:15;17.70;99.90
28010;DHT22;15334;49.494;8.410;2022-10-31T15:39:44;17.60;99.90
28010;DHT22;15334;49.494;8.410;2022-10-31T15:42:20;17.60;99.90
28010;DHT22;15334;49.494;8.410;2022-10-31T15:44:53;17.50;99.90
28010;DHT22;15334;49.494;8.410;2022-10-31T15:47:23;17.50;99.90
28010;DHT22;15334;49.494;8.410;2022-10-31T15:49:53;17.40;99.90
28010;DHT22;15334;49.494;8.410;2022-10-31T15:52:28;17.50;99.90
28010;DHT22;15334;49.494;8.410;2022-10-31T15:55:00;17.50;99.90
28010;DHT22;15334;49.494;8.410;2022-10-31T15:57:30;17.50;99.90
28010;DHT22;15334;49.494;8.410;2022-10-31T16:00:00;17.50;99.90
28010;DHT22;15334;49.494;8.410;2022-10-31T16:02:28;17.50;99.90
28010;DHT22;15334;49.494;8.410;2022-10-31T16:04:58;17.40;99.90
28010;DHT22;15334;49.494;8.410;2022-10-31T16:07:28;17.30;99.90
28010;DHT22;15334;49.494;8.410;2022-10-31T16:09:58;17.30;99.90
28010;DHT22;15334;49.494;8.410;2022-10-31T16:12:31;17.20;99.90